sensor_id;sensor_type;location;lat;lon;timestamp;P1;durP1;ratioP1;P2;durP2;ratioP2
14118;SDS011;7138;49.246;9.100;2022-07-12T00:02:23;3.27;;;1.07;;
14118;SDS011;7138;49.246;9.100;2022-07-12T00:04:48;2.55;;;1.20;;
14118;SDS011;7138;49.246;9.100;2022-07-12T00:07:14;3.30;;;1.30;;
14118;SDS011;7138;49.246;9.100;2022-07-12T00:09:42;2.35;;;1.10;;
14118;SDS011;7138;49.246;9.100;2022-07-12T00:12:09;4.00;;;1.30;;
14118;SDS011;7138;49.246;9.100;2022-07-12T00:14:35;4.05;;;1.10;;
14118;SDS011;7138;49.246;9.100;2022-07-12T00:17:01;3.70;;;1.20;;
14118;SDS011;7138;49.246;9.100;2022-07-12T00:19:29;3.28;;;1.17;;
14118;SDS011;7138;49.246;9.100;2022-07-12T00:21:55;2.55;;;1.10;;
14118;SDS011;7138;49.246;9.100;2022-07-12T00:24:20;2.88;;;1.30;;
14118;SDS011;7138;49.246;9.100;2022-07-12T00:26:48;2.95;;;0.93;;
14118;SDS011;7138;49.246;9.100;2022-07-12T00:29:13;2.85;;;1.15;;
14118;SDS011;7138;49.246;9.100;2022-07-12T00:31:39;4.50;;;1.15;;
14118;SDS011;7138;49.246;9.100;2022-07-12T00:34:05;3.42;;;1.25;;
14118;SDS011;7138;49.246;9.100;2022-07-12T00:36:31;2.60;;;1.05;;
14118;SDS011;7138;49.246;9.100;2022-07-12T00:38:57;3.85;;;1.23;;
14118;SDS011;7138;49.246;9.100;2022-07-12T00:41:23;2.65;;;1.15;;
14118;SDS011;7138;49.246;9.100;2022-07-12T00:43:50;2.30;;;1.20;;
14118;SDS011;7138;49.246;9.100;2022-07-12T00:46:15;2.42;;;1.10;;
14118;SDS011;7138;49.246;9.100;2022-07-12T00:48:48;3.15;;;1.20;;
14118;SDS011;7138;49.246;9.100;2022-07-12T00:51:15;2.22;;;1.10;;
14118;SDS011;7138;49.246;9.100;2022-07-12T00:53:43;1.95;;;0.98;;
14118;SDS011;7138;49.246;9.100;2022-07-12T00:56:09;3.55;;;1.13;;
14118;SDS011;7138;49.246;9.100;2022-07-12T00:58:37;2.50;;;1.20;;
14118;SDS011;7138;49.246;9.100;2022-07-12T01:01:04;3.13;;;1.17;;
14118;SDS011;7138;49.246;9.100;2022-07-12T01:03:30;2.55;;;1.15;;
14118;SDS011;7138;49.246;9.100;2022-07-12T01:05:56;2.45;;;1.17;;
14118;SDS011;7138;49.246;9.100;2022-07-12T01:08:22;3.25;;;1.23;;
14118;SDS011;7138;49.246;9.100;2022-07-12T01:10:51;2.20;;;1.00;;
14118;SDS011;7138;49.246;9.100;2022-07-12T01:13:18;2.47;;;1.27;;
14118;SDS011;7138;49.246;9.100;2022-07-12T01:15:44;3.97;;;1.30;;
14118;SDS011;7138;49.246;9.100;2022-07-12T01:18:14;2.95;;;1.10;;
14118;SDS011;7138;49.246;9.100;2022-07-12T01:20:41;2.15;;;1.10;;
14118;SDS011;7138;49.246;9.100;2022-07-12T01:23:08;2.67;;;1.17;;
14118;SDS011;7138;49.246;9.100;2022-07-12T01:25:36;4.35;;;1.20;;
14118;SDS011;7138;49.246;9.100;2022-07-12T01:28:02;3.15;;;1.00;;
14118;SDS011;7138;49.246;9.100;2022-07-12T01:30:29;3.00;;;1.25;;
14118;SDS011;7138;49.246;9.100;2022-07-12T01:32:55;3.03;;;1.10;;
14118;SDS011;7138;49.246;9.100;2022-07-12T01:35:24;4.65;;;1.35;;
14118;SDS011;7138;49.246;9.100;2022-07-12T01:37:50;2.50;;;1.10;;
14118;SDS011;7138;49.246;9.100;2022-07-12T01:40:18;2.40;;;1.10;;
14118;SDS011;7138;49.246;9.100;2022-07-12T01:42:45;2.33;;;1.20;;
14118;SDS011;7138;49.246;9.100;2022-07-12T01:45:13;2.50;;;1.13;;
14118;SDS011;7138;49.246;9.100;2022-07-12T01:47:39;2.13;;;1.10;;
14118;SDS011;7138;49.246;9.100;2022-07-12T01:50:06;3.05;;;1.33;;
14118;SDS011;7138;49.246;9.100;2022-07-12T01:52:34;2.80;;;1.33;;
14118;SDS011;7138;49.246;9.100;2022-07-12T01:55:00;4.38;;;1.20;;
14118;SDS011;7138;49.246;9.100;2022-07-12T01:57:28;2.42;;;1.25;;
14118;SDS011;7138;49.246;9.100;2022-07-12T01:59:57;2.67;;;1.20;;
14118;SDS011;7138;49.246;9.100;2022-07-12T02:02:25;3.55;;;1.40;;
14118;SDS011;7138;49.246;9.100;2022-07-12T02:04:52;3.72;;;1.50;;
14118;SDS011;7138;49.246;9.100;2022-07-12T02:07:20;2.75;;;1.45;;
14118;SDS011;7138;49.246;9.100;2022-07-12T02:09:48;3.10;;;1.45;;
14118;SDS011;7138;49.246;9.100;2022-07-12T02:12:14;2.50;;;1.20;;
14118;SDS011;7138;49.246;9.100;2022-07-12T02:14:42;4.18;;;1.30;;
14118;SDS011;7138;49.246;9.100;2022-07-12T02:17:08;2.50;;;1.30;;
14118;SDS011;7138;49.246;9.100;2022-07-12T02:19:33;3.10;;;1.67;;
14118;SDS011;7138;49.246;9.100;2022-07-12T02:21:59;4.55;;;1.40;;
14118;SDS011;7138;49.246;9.100;2022-07-12T02:24:25;3.10;;;1.20;;
14118;SDS011;7138;49.246;9.100;2022-07-12T02:26:51;3.33;;;1.23;;
14118;SDS011;7138;49.246;9.100;2022-07-12T02:29:17;3.10;;;1.27;;
14118;SDS011;7138;49.246;9.100;2022-07-12T02:31:44;2.25;;;1.23;;
14118;SDS011;7138;49.246;9.100;2022-07-12T02:34:10;2.40;;;1.10;;
14118;SDS011;7138;49.246;9.100;2022-07-12T02:36:36;3.17;;;1.40;;
14118;SDS011;7138;49.246;9.100;2022-07-12T02:39:02;3.72;;;1.13;;
14118;SDS011;7138;49.246;9.100;2022-07-12T02:41:29;4.25;;;1.35;;
14118;SDS011;7138;49.246;9.100;2022-07-12T02:43:55;2.67;;;1.20;;
14118;SDS011;7138;49.246;9.100;2022-07-12T02:46:21;3.80;;;1.10;;
14118;SDS011;7138;49.246;9.100;2022-07-12T02:48:48;2.60;;;1.40;;
14118;SDS011;7138;49.246;9.100;2022-07-12T02:51:14;3.25;;;1.20;;
14118;SDS011;7138;49.246;9.100;2022-07-12T02:53:40;2.45;;;1.25;;
14118;SDS011;7138;49.246;9.100;2022-07-12T02:56:06;2.45;;;1.27;;
14118;SDS011;7138;49.246;9.100;2022-07-12T02:58:33;2.67;;;1.20;;
14118;SDS011;7138;49.246;9.100;2022-07-12T03:01:00;3.05;;;1.10;;
14118;SDS011;7138;49.246;9.100;2022-07-12T03:03:26;2.47;;;1.20;;
14118;SDS011;7138;49.246;9.100;2022-07-12T03:05:53;4.90;;;1.40;;
14118;SDS011;7138;49.246;9.100;2022-07-12T03:08:19;2.60;;;1.38;;
14118;SDS011;7138;49.246;9.100;2022-07-12T03:10:45;2.70;;;1.35;;
14118;SDS011;7138;49.246;9.100;2022-07-12T03:13:11;4.18;;;1.38;;
14118;SDS011;7138;49.246;9.100;2022-07-12T03:15:36;3.10;;;1.45;;
14118;SDS011;7138;49.246;9.100;2022-07-12T03:18:02;2.72;;;1.50;;
14118;SDS011;7138;49.246;9.100;2022-07-12T03:20:28;4.05;;;1.48;;
14118;SDS011;7138;49.246;9.100;2022-07-12T03:22:56;2.67;;;1.40;;
14118;SDS011;7138;49.246;9.100;2022-07-12T03:25:24;2.35;;;1.20;;
14118;SDS011;7138;49.246;9.100;2022-07-12T03:27:50;3.08;;;1.30;;
14118;SDS011;7138;49.246;9.100;2022-07-12T03:30:16;3.78;;;1.27;;
14118;SDS011;7138;49.246;9.100;2022-07-12T03:32:42;2.33;;;1.25;;
14118;SDS011;7138;49.246;9.100;2022-07-12T03:35:09;3.95;;;1.50;;
14118;SDS011;7138;49.246;9.100;2022-07-12T03:37:42;2.35;;;1.20;;
14118;SDS011;7138;49.246;9.100;2022-07-12T03:40:11;3.65;;;1.50;;
14118;SDS011;7138;49.246;9.100;2022-07-12T03:42:39;2.83;;;1.30;;
14118;SDS011;7138;49.246;9.100;2022-07-12T03:45:05;3.35;;;1.30;;
14118;SDS011;7138;49.246;9.100;2022-07-12T03:47:31;3.10;;;1.50;;
14118;SDS011;7138;49.246;9.100;2022-07-12T03:50:00;2.40;;;1.42;;
14118;SDS011;7138;49.246;9.100;2022-07-12T03:52:27;2.88;;;1.45;;
14118;SDS011;7138;49.246;9.100;2022-07-12T03:54:53;2.90;;;1.17;;
14118;SDS011;7138;49.246;9.100;2022-07-12T03:57:23;3.20;;;1.20;;
14118;SDS011;7138;49.246;9.100;2022-07-12T03:59:49;3.00;;;1.40;;
14118;SDS011;7138;49.246;9.100;2022-07-12T04:02:15;2.88;;;1.40;;
14118;SDS011;7138;49.246;9.100;2022-07-12T04:04:41;2.30;;;1.30;;
14118;SDS011;7138;49.246;9.100;2022-07-12T04:07:07;3.97;;;1.35;;
14118;SDS011;7138;49.246;9.100;2022-07-12T04:09:33;2.28;;;1.33;;
14118;SDS011;7138;49.246;9.100;2022-07-12T04:11:59;3.38;;;1.20;;
14118;SDS011;7138;49.246;9.100;2022-07-12T04:14:26;7.63;;;1.35;;
14118;SDS011;7138;49.246;9.100;2022-07-12T04:16:53;2.70;;;1.50;;
14118;SDS011;7138;49.246;9.100;2022-07-12T04:19:19;2.70;;;1.40;;
14118;SDS011;7138;49.246;9.100;2022-07-12T04:21:48;2.55;;;1.40;;
14118;SDS011;7138;49.246;9.100;2022-07-12T04:24:14;3.05;;;1.50;;
14118;SDS011;7138;49.246;9.100;2022-07-12T04:26:40;3.78;;;1.30;;
14118;SDS011;7138;49.246;9.100;2022-07-12T04:29:06;2.88;;;1.50;;
14118;SDS011;7138;49.246;9.100;2022-07-12T04:31:34;2.78;;;1.30;;
14118;SDS011;7138;49.246;9.100;2022-07-12T04:33:59;3.65;;;1.40;;
14118;SDS011;7138;49.246;9.100;2022-07-12T04:36:25;2.30;;;1.20;;
14118;SDS011;7138;49.246;9.100;2022-07-12T04:38:51;3.92;;;1.20;;
14118;SDS011;7138;49.246;9.100;2022-07-12T04:41:17;3.88;;;1.27;;
14118;SDS011;7138;49.246;9.100;2022-07-12T04:43:43;2.72;;;1.30;;
14118;SDS011;7138;49.246;9.100;2022-07-12T04:46:09;3.42;;;1.50;;
14118;SDS011;7138;49.246;9.100;2022-07-12T04:48:37;3.90;;;1.48;;
14118;SDS011;7138;49.246;9.100;2022-07-12T04:51:03;3.70;;;1.20;;
14118;SDS011;7138;49.246;9.100;2022-07-12T04:53:29;2.50;;;1.20;;
14118;SDS011;7138;49.246;9.100;2022-07-12T04:55:55;2.80;;;1.50;;
14118;SDS011;7138;49.246;9.100;2022-07-12T04:58:21;2.42;;;1.30;;
14118;SDS011;7138;49.246;9.100;2022-07-12T05:00:48;2.80;;;1.50;;
14118;SDS011;7138;49.246;9.100;2022-07-12T05:03:14;3.38;;;1.77;;
14118;SDS011;7138;49.246;9.100;2022-07-12T05:05:41;3.10;;;1.52;;
14118;SDS011;7138;49.246;9.100;2022-07-12T05:08:07;3.38;;;1.55;;
14118;SDS011;7138;49.246;9.100;2022-07-12T05:10:33;3.75;;;1.63;;
14118;SDS011;7138;49.246;9.100;2022-07-12T05:12:59;3.30;;;1.73;;
14118;SDS011;7138;49.246;9.100;2022-07-12T05:15:25;3.00;;;1.60;;
14118;SDS011;7138;49.246;9.100;2022-07-12T05:17:51;3.05;;;1.38;;
14118;SDS011;7138;49.246;9.100;2022-07-12T05:20:17;2.90;;;1.38;;
14118;SDS011;7138;49.246;9.100;2022-07-12T05:22:45;2.72;;;1.20;;
14118;SDS011;7138;49.246;9.100;2022-07-12T05:25:11;2.10;;;1.10;;
14118;SDS011;7138;49.246;9.100;2022-07-12T05:27:37;3.53;;;1.00;;
14118;SDS011;7138;49.246;9.100;2022-07-12T05:30:03;2.38;;;1.05;;
14118;SDS011;7138;49.246;9.100;2022-07-12T05:32:31;2.30;;;0.95;;
14118;SDS011;7138;49.246;9.100;2022-07-12T05:34:57;1.70;;;0.82;;
14118;SDS011;7138;49.246;9.100;2022-07-12T05:37:23;2.08;;;0.77;;
14118;SDS011;7138;49.246;9.100;2022-07-12T05:39:51;3.08;;;0.90;;
14118;SDS011;7138;49.246;9.100;2022-07-12T05:42:17;2.70;;;0.95;;
14118;SDS011;7138;49.246;9.100;2022-07-12T05:44:43;3.40;;;0.80;;
14118;SDS011;7138;49.246;9.100;2022-07-12T05:47:09;2.00;;;0.80;;
14118;SDS011;7138;49.246;9.100;2022-07-12T05:49:35;2.63;;;0.90;;
14118;SDS011;7138;49.246;9.100;2022-07-12T05:52:01;3.30;;;0.75;;
14118;SDS011;7138;49.246;9.100;2022-07-12T05:54:45;2.58;;;0.70;;
14118;SDS011;7138;49.246;9.100;2022-07-12T05:57:13;1.95;;;0.60;;
14118;SDS011;7138;49.246;9.100;2022-07-12T05:59:39;2.05;;;0.70;;
14118;SDS011;7138;49.246;9.100;2022-07-12T06:02:05;2.75;;;0.63;;
14118;SDS011;7138;49.246;9.100;2022-07-12T06:04:31;1.90;;;0.70;;
14118;SDS011;7138;49.246;9.100;2022-07-12T06:06:57;1.42;;;0.60;;
14118;SDS011;7138;49.246;9.100;2022-07-12T06:09:23;1.15;;;0.52;;
14118;SDS011;7138;49.246;9.100;2022-07-12T06:11:49;1.92;;;0.70;;
14118;SDS011;7138;49.246;9.100;2022-07-12T06:14:16;1.60;;;0.60;;
14118;SDS011;7138;49.246;9.100;2022-07-12T06:16:43;2.30;;;0.80;;
14118;SDS011;7138;49.246;9.100;2022-07-12T06:19:08;1.73;;;0.73;;
14118;SDS011;7138;49.246;9.100;2022-07-12T06:21:34;2.05;;;0.70;;
14118;SDS011;7138;49.246;9.100;2022-07-12T06:24:00;2.08;;;0.77;;
14118;SDS011;7138;49.246;9.100;2022-07-12T06:26:26;1.63;;;0.65;;
14118;SDS011;7138;49.246;9.100;2022-07-12T06:28:52;1.20;;;0.50;;
14118;SDS011;7138;49.246;9.100;2022-07-12T06:31:19;1.92;;;0.60;;
14118;SDS011;7138;49.246;9.100;2022-07-12T06:33:48;2.10;;;0.70;;
14118;SDS011;7138;49.246;9.100;2022-07-12T06:36:14;1.63;;;0.55;;
14118;SDS011;7138;49.246;9.100;2022-07-12T06:38:40;0.90;;;0.40;;
14118;SDS011;7138;49.246;9.100;2022-07-12T06:41:05;3.53;;;0.82;;
14118;SDS011;7138;49.246;9.100;2022-07-12T06:43:31;3.92;;;0.90;;
14118;SDS011;7138;49.246;9.100;2022-07-12T06:45:57;1.35;;;0.60;;
14118;SDS011;7138;49.246;9.100;2022-07-12T06:48:24;1.38;;;0.60;;
14118;SDS011;7138;49.246;9.100;2022-07-12T06:50:50;2.95;;;0.60;;
14118;SDS011;7138;49.246;9.100;2022-07-12T06:53:16;2.97;;;0.70;;
14118;SDS011;7138;49.246;9.100;2022-07-12T06:55:42;2.30;;;0.50;;
14118;SDS011;7138;49.246;9.100;2022-07-12T06:58:08;1.10;;;0.35;;
14118;SDS011;7138;49.246;9.100;2022-07-12T07:00:34;1.45;;;0.40;;
14118;SDS011;7138;49.246;9.100;2022-07-12T07:03:01;1.10;;;0.40;;
14118;SDS011;7138;49.246;9.100;2022-07-12T07:05:28;3.55;;;0.70;;
14118;SDS011;7138;49.246;9.100;2022-07-12T07:07:54;1.25;;;0.40;;
14118;SDS011;7138;49.246;9.100;2022-07-12T07:10:20;1.52;;;0.38;;
14118;SDS011;7138;49.246;9.100;2022-07-12T07:12:46;4.40;;;0.60;;
14118;SDS011;7138;49.246;9.100;2022-07-12T07:15:12;1.75;;;0.50;;
14118;SDS011;7138;49.246;9.100;2022-07-12T07:17:40;1.95;;;0.45;;
14118;SDS011;7138;49.246;9.100;2022-07-12T07:20:08;1.20;;;0.50;;
14118;SDS011;7138;49.246;9.100;2022-07-12T07:22:36;4.30;;;0.60;;
14118;SDS011;7138;49.246;9.100;2022-07-12T07:25:02;1.58;;;0.40;;
14118;SDS011;7138;49.246;9.100;2022-07-12T07:27:29;1.23;;;0.38;;
14118;SDS011;7138;49.246;9.100;2022-07-12T07:29:55;1.05;;;0.30;;
14118;SDS011;7138;49.246;9.100;2022-07-12T07:32:39;1.92;;;0.30;;
14118;SDS011;7138;49.246;9.100;2022-07-12T07:35:05;1.50;;;0.47;;
14118;SDS011;7138;49.246;9.100;2022-07-12T07:37:33;1.40;;;0.40;;
14118;SDS011;7138;49.246;9.100;2022-07-12T07:40:01;1.30;;;0.40;;
14118;SDS011;7138;49.246;9.100;2022-07-12T07:42:28;0.90;;;0.40;;
14118;SDS011;7138;49.246;9.100;2022-07-12T07:44:53;1.23;;;0.38;;
14118;SDS011;7138;49.246;9.100;2022-07-12T07:47:22;1.63;;;0.50;;
14118;SDS011;7138;49.246;9.100;2022-07-12T07:49:48;0.77;;;0.30;;
14118;SDS011;7138;49.246;9.100;2022-07-12T07:52:14;1.48;;;0.55;;
14118;SDS011;7138;49.246;9.100;2022-07-12T07:54:40;1.55;;;0.60;;
14118;SDS011;7138;49.246;9.100;2022-07-12T07:57:07;2.25;;;0.60;;
14118;SDS011;7138;49.246;9.100;2022-07-12T07:59:33;1.27;;;0.40;;
14118;SDS011;7138;49.246;9.100;2022-07-12T08:02:00;2.22;;;0.40;;
14118;SDS011;7138;49.246;9.100;2022-07-12T08:04:26;1.45;;;0.50;;
14118;SDS011;7138;49.246;9.100;2022-07-12T08:06:52;2.67;;;0.43;;
14118;SDS011;7138;49.246;9.100;2022-07-12T08:09:18;1.27;;;0.43;;
14118;SDS011;7138;49.246;9.100;2022-07-12T08:11:44;1.52;;;0.50;;
14118;SDS011;7138;49.246;9.100;2022-07-12T08:14:11;1.02;;;0.40;;
14118;SDS011;7138;49.246;9.100;2022-07-12T08:16:37;0.52;;;0.30;;
14118;SDS011;7138;49.246;9.100;2022-07-12T08:19:04;1.20;;;0.30;;
14118;SDS011;7138;49.246;9.100;2022-07-12T08:21:30;2.15;;;0.40;;
14118;SDS011;7138;49.246;9.100;2022-07-12T08:23:56;0.90;;;0.38;;
14118;SDS011;7138;49.246;9.100;2022-07-12T08:26:22;1.30;;;0.30;;
14118;SDS011;7138;49.246;9.100;2022-07-12T08:28:48;1.70;;;0.40;;
14118;SDS011;7138;49.246;9.100;2022-07-12T08:31:15;1.60;;;0.40;;
14118;SDS011;7138;49.246;9.100;2022-07-12T08:33:42;0.90;;;0.30;;
14118;SDS011;7138;49.246;9.100;2022-07-12T08:36:08;1.67;;;0.40;;
14118;SDS011;7138;49.246;9.100;2022-07-12T08:38:34;2.05;;;0.40;;
14118;SDS011;7138;49.246;9.100;2022-07-12T08:41:01;2.08;;;0.40;;
14118;SDS011;7138;49.246;9.100;2022-07-12T08:43:29;1.40;;;0.30;;
14118;SDS011;7138;49.246;9.100;2022-07-12T08:46:01;0.85;;;0.30;;
14118;SDS011;7138;49.246;9.100;2022-07-12T08:48:30;1.27;;;0.40;;
14118;SDS011;7138;49.246;9.100;2022-07-12T08:51:02;0.98;;;0.38;;
14118;SDS011;7138;49.246;9.100;2022-07-12T08:53:30;1.35;;;0.20;;
14118;SDS011;7138;49.246;9.100;2022-07-12T08:55:57;1.27;;;0.38;;
14118;SDS011;7138;49.246;9.100;2022-07-12T08:58:23;1.25;;;0.28;;
14118;SDS011;7138;49.246;9.100;2022-07-12T09:00:49;1.05;;;0.30;;
14118;SDS011;7138;49.246;9.100;2022-07-12T09:03:15;1.13;;;0.43;;
14118;SDS011;7138;49.246;9.100;2022-07-12T09:05:48;6.03;;;1.00;;
14118;SDS011;7138;49.246;9.100;2022-07-12T09:08:16;0.82;;;0.30;;
14118;SDS011;7138;49.246;9.100;2022-07-12T09:10:54;0.80;;;0.30;;
14118;SDS011;7138;49.246;9.100;2022-07-12T09:16:13;0.90;;;0.30;;
14118;SDS011;7138;49.246;9.100;2022-07-12T09:18:40;2.42;;;0.40;;
14118;SDS011;7138;49.246;9.100;2022-07-12T09:21:07;0.55;;;0.30;;
14118;SDS011;7138;49.246;9.100;2022-07-12T09:23:33;0.85;;;0.30;;
14118;SDS011;7138;49.246;9.100;2022-07-12T09:25:59;0.60;;;0.30;;
14118;SDS011;7138;49.246;9.100;2022-07-12T09:28:32;0.90;;;0.30;;
14118;SDS011;7138;49.246;9.100;2022-07-12T09:30:58;0.25;;;0.15;;
14118;SDS011;7138;49.246;9.100;2022-07-12T09:33:25;0.82;;;0.20;;
14118;SDS011;7138;49.246;9.100;2022-07-12T09:36:11;0.40;;;0.20;;
14118;SDS011;7138;49.246;9.100;2022-07-12T09:38:49;1.17;;;0.40;;
14118;SDS011;7138;49.246;9.100;2022-07-12T09:41:20;1.58;;;0.32;;
14118;SDS011;7138;49.246;9.100;2022-07-12T09:43:46;2.22;;;0.30;;
14118;SDS011;7138;49.246;9.100;2022-07-12T09:46:13;1.52;;;0.50;;
14118;SDS011;7138;49.246;9.100;2022-07-12T09:48:41;1.52;;;0.40;;
14118;SDS011;7138;49.246;9.100;2022-07-12T09:51:09;0.80;;;0.30;;
14118;SDS011;7138;49.246;9.100;2022-07-12T09:53:41;1.50;;;0.30;;
14118;SDS011;7138;49.246;9.100;2022-07-12T09:56:10;0.77;;;0.35;;
14118;SDS011;7138;49.246;9.100;2022-07-12T09:58:38;2.85;;;0.70;;
14118;SDS011;7138;49.246;9.100;2022-07-12T10:01:08;2.67;;;0.52;;
14118;SDS011;7138;49.246;9.100;2022-07-12T10:03:36;0.93;;;0.30;;
14118;SDS011;7138;49.246;9.100;2022-07-12T10:06:07;0.35;;;0.20;;
14118;SDS011;7138;49.246;9.100;2022-07-12T10:08:38;3.70;;;0.52;;
14118;SDS011;7138;49.246;9.100;2022-07-12T10:11:05;2.58;;;0.30;;
14118;SDS011;7138;49.246;9.100;2022-07-12T10:13:32;1.88;;;0.30;;
14118;SDS011;7138;49.246;9.100;2022-07-12T10:16:00;0.90;;;0.28;;
14118;SDS011;7138;49.246;9.100;2022-07-12T10:18:28;1.52;;;0.40;;
14118;SDS011;7138;49.246;9.100;2022-07-12T10:20:54;1.20;;;0.30;;
14118;SDS011;7138;49.246;9.100;2022-07-12T10:23:30;1.50;;;0.45;;
14118;SDS011;7138;49.246;9.100;2022-07-12T10:28:54;3.15;;;0.93;;
14118;SDS011;7138;49.246;9.100;2022-07-12T10:31:24;0.82;;;0.28;;
14118;SDS011;7138;49.246;9.100;2022-07-12T10:33:59;1.50;;;0.32;;
14118;SDS011;7138;49.246;9.100;2022-07-12T10:42:13;1.00;;;0.40;;
14118;SDS011;7138;49.246;9.100;2022-07-12T10:44:42;1.13;;;0.40;;
14118;SDS011;7138;49.246;9.100;2022-07-12T10:47:11;0.85;;;0.40;;
14118;SDS011;7138;49.246;9.100;2022-07-12T10:49:45;0.77;;;0.20;;
14118;SDS011;7138;49.246;9.100;2022-07-12T10:52:14;0.85;;;0.32;;
14118;SDS011;7138;49.246;9.100;2022-07-12T10:54:46;1.13;;;0.20;;
14118;SDS011;7138;49.246;9.100;2022-07-12T10:57:42;2.15;;;0.38;;
14118;SDS011;7138;49.246;9.100;2022-07-12T11:00:12;1.00;;;0.30;;
14118;SDS011;7138;49.246;9.100;2022-07-12T11:02:40;1.65;;;0.40;;
14118;SDS011;7138;49.246;9.100;2022-07-12T11:05:06;1.38;;;0.30;;
14118;SDS011;7138;49.246;9.100;2022-07-12T11:07:33;1.58;;;0.22;;
14118;SDS011;7138;49.246;9.100;2022-07-12T11:10:01;1.35;;;0.30;;
14118;SDS011;7138;49.246;9.100;2022-07-12T11:12:29;0.45;;;0.20;;
14118;SDS011;7138;49.246;9.100;2022-07-12T11:14:55;0.70;;;0.30;;
14118;SDS011;7138;49.246;9.100;2022-07-12T11:17:25;0.43;;;0.20;;
14118;SDS011;7138;49.246;9.100;2022-07-12T11:20:02;0.57;;;0.30;;
14118;SDS011;7138;49.246;9.100;2022-07-12T11:22:31;1.65;;;0.30;;
14118;SDS011;7138;49.246;9.100;2022-07-12T11:24:58;1.90;;;0.40;;
14118;SDS011;7138;49.246;9.100;2022-07-12T11:27:26;0.88;;;0.22;;
14118;SDS011;7138;49.246;9.100;2022-07-12T11:29:55;0.47;;;0.22;;
14118;SDS011;7138;49.246;9.100;2022-07-12T11:32:32;0.70;;;0.30;;
14118;SDS011;7138;49.246;9.100;2022-07-12T11:34:59;0.50;;;0.25;;
14118;SDS011;7138;49.246;9.100;2022-07-12T11:37:25;0.75;;;0.20;;
14118;SDS011;7138;49.246;9.100;2022-07-12T11:39:51;0.98;;;0.38;;
14118;SDS011;7138;49.246;9.100;2022-07-12T11:42:17;1.17;;;0.20;;
14118;SDS011;7138;49.246;9.100;2022-07-12T11:44:45;1.27;;;0.20;;
14118;SDS011;7138;49.246;9.100;2022-07-12T11:49:41;1.10;;;0.30;;
14118;SDS011;7138;49.246;9.100;2022-07-12T11:54:37;1.58;;;0.30;;
14118;SDS011;7138;49.246;9.100;2022-07-12T11:57:07;2.00;;;0.40;;
14118;SDS011;7138;49.246;9.100;2022-07-12T11:59:34;0.70;;;0.25;;
14118;SDS011;7138;49.246;9.100;2022-07-12T12:02:05;2.22;;;0.32;;
14118;SDS011;7138;49.246;9.100;2022-07-12T12:04:42;1.77;;;0.30;;
14118;SDS011;7138;49.246;9.100;2022-07-12T12:07:11;0.93;;;0.20;;
14118;SDS011;7138;49.246;9.100;2022-07-12T12:09:59;1.45;;;0.30;;
14118;SDS011;7138;49.246;9.100;2022-07-12T12:12:27;0.43;;;0.20;;
14118;SDS011;7138;49.246;9.100;2022-07-12T12:15:02;1.42;;;0.30;;
14118;SDS011;7138;49.246;9.100;2022-07-12T12:17:32;2.53;;;0.40;;
14118;SDS011;7138;49.246;9.100;2022-07-12T12:20:07;0.65;;;0.20;;
14118;SDS011;7138;49.246;9.100;2022-07-12T12:22:35;1.52;;;0.40;;
14118;SDS011;7138;49.246;9.100;2022-07-12T12:25:04;1.45;;;0.30;;
14118;SDS011;7138;49.246;9.100;2022-07-12T12:27:31;2.30;;;0.40;;
14118;SDS011;7138;49.246;9.100;2022-07-12T12:29:58;2.00;;;0.20;;
14118;SDS011;7138;49.246;9.100;2022-07-12T12:32:29;1.25;;;0.30;;
14118;SDS011;7138;49.246;9.100;2022-07-12T12:35:08;1.30;;;0.40;;
14118;SDS011;7138;49.246;9.100;2022-07-12T12:37:35;0.75;;;0.22;;
14118;SDS011;7138;49.246;9.100;2022-07-12T12:40:01;0.90;;;0.30;;
14118;SDS011;7138;49.246;9.100;2022-07-12T12:42:27;1.27;;;0.30;;
14118;SDS011;7138;49.246;9.100;2022-07-12T12:44:53;0.63;;;0.35;;
14118;SDS011;7138;49.246;9.100;2022-07-12T12:47:19;0.52;;;0.20;;
14118;SDS011;7138;49.246;9.100;2022-07-12T12:49:59;2.40;;;0.45;;
14118;SDS011;7138;49.246;9.100;2022-07-12T12:52:26;1.90;;;0.30;;
14118;SDS011;7138;49.246;9.100;2022-07-12T12:54:54;5.72;;;0.55;;
14118;SDS011;7138;49.246;9.100;2022-07-12T12:57:23;2.58;;;0.30;;
14118;SDS011;7138;49.246;9.100;2022-07-12T12:59:51;0.70;;;0.20;;
14118;SDS011;7138;49.246;9.100;2022-07-12T13:02:18;3.28;;;0.30;;
14118;SDS011;7138;49.246;9.100;2022-07-12T13:04:45;3.38;;;0.30;;
14118;SDS011;7138;49.246;9.100;2022-07-12T13:07:12;4.03;;;0.60;;
14118;SDS011;7138;49.246;9.100;2022-07-12T13:09:38;2.03;;;0.30;;
14118;SDS011;7138;49.246;9.100;2022-07-12T13:12:05;2.15;;;0.47;;
14118;SDS011;7138;49.246;9.100;2022-07-12T13:14:31;1.08;;;0.40;;
14118;SDS011;7138;49.246;9.100;2022-07-12T13:16:58;1.23;;;0.32;;
14118;SDS011;7138;49.246;9.100;2022-07-12T13:19:24;2.80;;;0.50;;
14118;SDS011;7138;49.246;9.100;2022-07-12T13:21:50;0.93;;;0.30;;
14118;SDS011;7138;49.246;9.100;2022-07-12T13:24:17;1.35;;;0.43;;
14118;SDS011;7138;49.246;9.100;2022-07-12T13:26:44;0.38;;;0.20;;
14118;SDS011;7138;49.246;9.100;2022-07-12T13:29:10;0.52;;;0.30;;
14118;SDS011;7138;49.246;9.100;2022-07-12T13:31:35;1.48;;;0.35;;
14118;SDS011;7138;49.246;9.100;2022-07-12T13:34:01;1.58;;;0.30;;
14118;SDS011;7138;49.246;9.100;2022-07-12T13:36:27;0.98;;;0.30;;
14118;SDS011;7138;49.246;9.100;2022-07-12T13:38:53;0.55;;;0.28;;
14118;SDS011;7138;49.246;9.100;2022-07-12T13:41:21;0.90;;;0.20;;
14118;SDS011;7138;49.246;9.100;2022-07-12T13:43:46;0.57;;;0.30;;
14118;SDS011;7138;49.246;9.100;2022-07-12T13:46:12;1.02;;;0.17;;
14118;SDS011;7138;49.246;9.100;2022-07-12T13:48:40;1.67;;;0.20;;
14118;SDS011;7138;49.246;9.100;2022-07-12T13:51:06;1.33;;;0.40;;
14118;SDS011;7138;49.246;9.100;2022-07-12T13:53:31;2.38;;;0.30;;
14118;SDS011;7138;49.246;9.100;2022-07-12T13:55:57;1.65;;;0.30;;
14118;SDS011;7138;49.246;9.100;2022-07-12T13:58:24;0.77;;;0.25;;
14118;SDS011;7138;49.246;9.100;2022-07-12T14:00:50;0.82;;;0.30;;
14118;SDS011;7138;49.246;9.100;2022-07-12T14:03:17;1.30;;;0.30;;
14118;SDS011;7138;49.246;9.100;2022-07-12T14:05:42;2.70;;;0.30;;
14118;SDS011;7138;49.246;9.100;2022-07-12T14:08:08;0.82;;;0.30;;
14118;SDS011;7138;49.246;9.100;2022-07-12T14:10:34;1.08;;;0.38;;
14118;SDS011;7138;49.246;9.100;2022-07-12T14:13:01;1.30;;;0.52;;
14118;SDS011;7138;49.246;9.100;2022-07-12T14:15:28;1.10;;;0.30;;
14118;SDS011;7138;49.246;9.100;2022-07-12T14:18:04;1.02;;;0.25;;
14118;SDS011;7138;49.246;9.100;2022-07-12T14:20:32;1.45;;;0.30;;
14118;SDS011;7138;49.246;9.100;2022-07-12T14:23:00;0.85;;;0.20;;
14118;SDS011;7138;49.246;9.100;2022-07-12T14:25:26;1.90;;;0.40;;
14118;SDS011;7138;49.246;9.100;2022-07-12T14:27:52;0.75;;;0.40;;
14118;SDS011;7138;49.246;9.100;2022-07-12T14:30:18;1.27;;;0.45;;
14118;SDS011;7138;49.246;9.100;2022-07-12T14:32:45;1.15;;;0.22;;
14118;SDS011;7138;49.246;9.100;2022-07-12T14:35:12;1.35;;;0.40;;
14118;SDS011;7138;49.246;9.100;2022-07-12T14:37:39;2.22;;;0.60;;
14118;SDS011;7138;49.246;9.100;2022-07-12T14:40:06;1.42;;;0.30;;
14118;SDS011;7138;49.246;9.100;2022-07-12T14:42:33;1.33;;;0.40;;
14118;SDS011;7138;49.246;9.100;2022-07-12T14:45:03;1.73;;;0.30;;
14118;SDS011;7138;49.246;9.100;2022-07-12T14:47:30;0.95;;;0.30;;
14118;SDS011;7138;49.246;9.100;2022-07-12T14:49:57;0.32;;;0.20;;
14118;SDS011;7138;49.246;9.100;2022-07-12T14:52:25;0.70;;;0.30;;
14118;SDS011;7138;49.246;9.100;2022-07-12T14:54:51;0.57;;;0.30;;
14118;SDS011;7138;49.246;9.100;2022-07-12T14:57:17;0.77;;;0.30;;
14118;SDS011;7138;49.246;9.100;2022-07-12T14:59:43;1.08;;;0.45;;
14118;SDS011;7138;49.246;9.100;2022-07-12T15:02:09;2.42;;;0.50;;
14118;SDS011;7138;49.246;9.100;2022-07-12T15:04:35;0.60;;;0.20;;
14118;SDS011;7138;49.246;9.100;2022-07-12T15:07:02;1.95;;;0.30;;
14118;SDS011;7138;49.246;9.100;2022-07-12T15:09:28;0.90;;;0.40;;
14118;SDS011;7138;49.246;9.100;2022-07-12T15:11:54;2.40;;;0.50;;
14118;SDS011;7138;49.246;9.100;2022-07-12T15:14:21;0.93;;;0.30;;
14118;SDS011;7138;49.246;9.100;2022-07-12T15:16:47;1.10;;;0.40;;
14118;SDS011;7138;49.246;9.100;2022-07-12T15:19:13;1.75;;;0.50;;